createdAt,value
2022-08-02T00:01:06.328Z,16.54
2022-08-02T00:03:34.400Z,16.51
2022-08-02T00:06:03.941Z,16.47
2022-08-02T00:08:31.884Z,16.44
2022-08-02T00:10:59.792Z,16.41
2022-08-02T00:13:27.963Z,16.39
2022-08-02T00:15:55.994Z,16.37
2022-08-02T00:18:25.157Z,16.34
2022-08-02T00:20:53.218Z,16.32
2022-08-02T00:23:21.383Z,16.29
2022-08-02T00:25:55.219Z,16.25
2022-08-02T00:28:27.342Z,16.22
2022-08-02T00:30:58.758Z,16.18
2022-08-02T00:34:05.636Z,16.15
2022-08-02T00:36:16.610Z,16.11
2022-08-02T00:38:46.581Z,16.08
2022-08-02T00:41:16.587Z,16.06
2022-08-02T00:43:45.349Z,16.04
2022-08-02T00:46:15.345Z,16.03
2022-08-02T00:48:43.426Z,16.01
2022-08-02T00:51:11.972Z,15.98
2022-08-02T00:53:40.184Z,15.95
2022-08-02T00:56:08.311Z,15.93
2022-08-02T00:58:36.458Z,15.89
2022-08-02T01:01:04.617Z,15.88
2022-08-02T01:03:32.704Z,15.88
2022-08-02T01:06:15.901Z,15.88
2022-08-02T01:08:44.526Z,15.92
2022-08-02T01:11:13.225Z,15.95
2022-08-02T01:13:41.360Z,16.00
2022-08-02T01:16:15.241Z,16.00
2022-08-02T01:18:45.856Z,16.00
2022-08-02T01:21:16.597Z,16.03
2022-08-02T01:24:03.065Z,16.01
2022-08-02T01:26:36.797Z,16.04
2022-08-02T01:29:18.858Z,16.03
2022-08-02T01:32:00.355Z,16.03
2022-08-02T01:34:44.403Z,15.99
2022-08-02T01:37:31.118Z,15.97
2022-08-02T01:40:03.112Z,15.98
2022-08-02T01:42:31.752Z,15.96
2022-08-02T01:45:01.691Z,15.94
2022-08-02T01:47:31.537Z,15.91
2022-08-02T01:50:00.798Z,15.85
2022-08-02T01:52:34.501Z,15.79
2022-08-02T01:55:18.971Z,15.74
2022-08-02T01:57:50.701Z,15.69
2022-08-02T02:00:20.067Z,15.67
2022-08-02T02:02:53.171Z,15.63
2022-08-02T02:05:23.204Z,15.57
2022-08-02T02:07:53.640Z,15.53
2022-08-02T02:10:25.277Z,15.49
2022-08-02T02:12:53.718Z,15.46
2022-08-02T02:15:23.589Z,15.42
2022-08-02T02:18:13.253Z,15.40
2022-08-02T02:20:42.181Z,15.36
2022-08-02T02:23:11.110Z,15.33
2022-08-02T02:25:46.907Z,15.30
2022-08-02T02:28:30.479Z,15.26
2022-08-02T02:31:06.198Z,15.24
2022-08-02T02:33:35.907Z,15.22
2022-08-02T02:36:04.199Z,15.21
2022-08-02T02:38:34.319Z,15.23
2022-08-02T02:41:03.332Z,15.21
2022-08-02T02:43:32.923Z,15.14
2022-08-02T02:46:03.718Z,15.09
2022-08-02T02:48:32.011Z,15.06
2022-08-02T02:51:00.810Z,15.06
2022-08-02T02:53:29.920Z,15.02
2022-08-02T02:56:18.410Z,14.98
2022-08-02T02:58:47.573Z,14.94
2022-08-02T03:01:55.458Z,14.93
2022-08-02T03:04:16.333Z,14.92
2022-08-02T03:06:44.247Z,14.94
2022-08-02T03:09:12.274Z,14.93
2022-08-02T03:11:41.037Z,14.93
2022-08-02T03:14:09.827Z,14.93
2022-08-02T03:16:45.882Z,14.91
2022-08-02T03:19:15.551Z,14.90
2022-08-02T03:21:44.274Z,14.90
2022-08-02T03:24:12.341Z,14.92
2022-08-02T03:26:41.124Z,14.95
2022-08-02T03:29:10.709Z,14.97
2022-08-02T03:31:40.698Z,14.96
2022-08-02T03:34:08.866Z,14.94
2022-08-02T03:36:37.568Z,14.93
2022-08-02T03:39:06.752Z,14.94
2022-08-02T03:41:36.580Z,15.02
2022-08-02T03:44:05.037Z,15.09
2022-08-02T03:46:34.256Z,15.08
2022-08-02T03:49:02.690Z,15.09
2022-08-02T03:51:31.162Z,15.12
2022-08-02T03:53:59.423Z,15.15
2022-08-02T03:56:29.837Z,15.17
2022-08-02T03:59:11.090Z,15.20
2022-08-02T04:01:40.200Z,15.24
2022-08-02T04:04:08.388Z,15.25
2022-08-02T04:06:40.064Z,15.27
2022-08-02T04:09:10.077Z,15.31
2022-08-02T04:11:38.252Z,15.35
2022-08-02T04:14:11.667Z,15.38
2022-08-02T04:16:44.811Z,15.43
2022-08-02T04:19:17.406Z,15.47
2022-08-02T04:21:51.098Z,15.50
2022-08-02T04:24:32.070Z,15.55
2022-08-02T04:27:19.191Z,15.61
2022-08-02T04:29:50.931Z,15.67
2022-08-02T04:32:20.434Z,15.74
2022-08-02T04:35:17.828Z,15.84
2022-08-02T04:38:09.886Z,15.93
2022-08-02T04:40:29.043Z,16.01
2022-08-02T04:42:57.290Z,16.08
2022-08-02T04:45:25.887Z,16.17
2022-08-02T04:48:04.637Z,16.25
2022-08-02T04:50:35.182Z,16.33
2022-08-02T04:53:03.278Z,16.39
2022-08-02T04:55:31.477Z,16.46
2022-08-02T04:57:59.774Z,16.54
2022-08-02T05:00:28.736Z,16.62
2022-08-02T05:02:57.507Z,16.71
2022-08-02T05:05:26.447Z,16.78
2022-08-02T05:07:56.132Z,16.84
2022-08-02T05:13:58.914Z,17.01
2022-08-02T05:16:32.277Z,17.13
2022-08-02T05:19:03.800Z,17.23
2022-08-02T05:21:32.112Z,17.32
2022-08-02T05:24:00.347Z,17.40
2022-08-02T05:26:31.871Z,17.50
2022-08-02T05:29:04.825Z,17.58
2022-08-02T05:31:33.058Z,17.66
2022-08-02T05:34:02.670Z,17.74
2022-08-02T05:36:30.685Z,17.86
2022-08-02T05:39:05.338Z,17.99
2022-08-02T05:41:39.312Z,18.17
2022-08-02T05:44:07.404Z,18.37
2022-08-02T05:46:35.434Z,18.61
2022-08-02T05:49:05.006Z,18.85
2022-08-02T05:51:40.795Z,19.13
2022-08-02T05:54:26.224Z,19.46
2022-08-02T05:56:54.286Z,19.79
2022-08-02T05:59:40.303Z,20.10
2022-08-02T06:02:16.661Z,20.50
2022-08-02T06:04:58.157Z,20.94
2022-08-02T06:07:26.207Z,21.40
2022-08-02T06:09:56.356Z,21.84
2022-08-02T06:12:29.409Z,22.27
2022-08-02T06:14:58.320Z,22.73
2022-08-02T06:17:26.809Z,23.16
2022-08-02T06:19:57.433Z,23.54
2022-08-02T06:22:35.751Z,23.92
2022-08-02T06:25:06.182Z,24.37
2022-08-02T06:27:37.526Z,24.86
2022-08-02T06:30:06.219Z,25.23
2022-08-02T06:32:37.233Z,25.56
2022-08-02T06:35:06.551Z,25.98
2022-08-02T06:37:41.441Z,26.48
2022-08-02T06:40:18.837Z,26.95
2022-08-02T06:42:46.736Z,27.33
2022-08-02T06:45:14.909Z,27.76
2022-08-02T06:47:47.470Z,28.07
2022-08-02T06:50:15.549Z,28.40
2022-08-02T06:52:45.568Z,28.86
2022-08-02T06:55:15.880Z,29.24
2022-08-02T06:57:45.916Z,29.61
2022-08-02T07:00:20.482Z,30.02
2022-08-02T07:02:53.143Z,30.23
2022-08-02T07:05:24.865Z,30.56
2022-08-02T07:07:53.933Z,30.81
2022-08-02T07:10:25.217Z,31.03
2022-08-02T07:12:53.137Z,31.20
2022-08-02T07:15:21.145Z,31.45
2022-08-02T07:17:49.113Z,31.68
2022-08-02T07:20:18.627Z,31.94
2022-08-02T07:22:47.941Z,32.18
2022-08-02T07:25:15.956Z,32.38
2022-08-02T07:27:43.979Z,32.66
2022-08-02T07:30:12.536Z,32.89
2022-08-02T07:32:40.565Z,32.75
2022-08-02T07:35:08.814Z,32.77
2022-08-02T07:37:55.435Z,33.21
2022-08-02T07:40:26.794Z,33.72
2022-08-02T07:43:03.013Z,34.10
2022-08-02T07:45:33.123Z,34.39
2022-08-02T07:48:04.143Z,34.25
2022-08-02T07:50:32.236Z,34.23
2022-08-02T07:53:00.260Z,34.15
2022-08-02T07:55:39.201Z,34.54
2022-08-02T07:58:13.836Z,34.86
2022-08-02T08:00:44.007Z,35.09
2022-08-02T08:03:14.635Z,35.41
2022-08-02T08:05:44.351Z,35.66
2022-08-02T08:08:17.776Z,35.65
2022-08-02T08:10:49.096Z,34.77
2022-08-02T08:13:18.228Z,33.90
2022-08-02T08:15:51.696Z,33.62
2022-08-02T08:18:22.198Z,33.86
2022-08-02T08:20:52.099Z,33.75
2022-08-02T08:23:20.979Z,34.02
2022-08-02T08:25:49.003Z,34.52
2022-08-02T08:28:18.123Z,34.90
2022-08-02T08:30:47.946Z,35.10
2022-08-02T08:33:53.282Z,35.47
2022-08-02T08:36:21.698Z,35.38
2022-08-02T08:38:54.838Z,35.60
2022-08-02T08:41:24.985Z,35.85
2022-08-02T08:44:01.038Z,35.99
2022-08-02T08:46:31.753Z,36.12
2022-08-02T08:49:18.620Z,35.88
2022-08-02T08:52:01.656Z,35.61
2022-08-02T08:54:34.225Z,35.70
2022-08-02T08:57:11.917Z,35.54
2022-08-02T08:59:43.278Z,35.35
2022-08-02T09:02:16.900Z,35.02
2022-08-02T09:04:55.112Z,35.40
2022-08-02T09:07:23.807Z,35.59
2022-08-02T09:09:51.889Z,35.69
2022-08-02T09:12:22.600Z,35.55
2022-08-02T09:14:50.963Z,35.78
2022-08-02T09:17:21.941Z,36.11
2022-08-02T09:20:05.909Z,36.28
2022-08-02T09:22:34.158Z,36.40
2022-08-02T09:25:02.427Z,36.48
2022-08-02T09:27:36.008Z,36.81
2022-08-02T09:30:13.746Z,37.07
2022-08-02T09:32:46.722Z,37.00
2022-08-02T09:35:15.477Z,36.28
2022-08-02T09:37:48.400Z,35.57
2022-08-02T09:40:17.006Z,34.55
2022-08-02T09:43:08.188Z,34.41
2022-08-02T09:45:37.349Z,35.02
2022-08-02T09:48:09.042Z,35.56
2022-08-02T09:50:38.481Z,35.82
2022-08-02T09:53:06.756Z,35.78
2022-08-02T09:55:35.314Z,35.26
2022-08-02T09:58:19.536Z,35.19
2022-08-02T10:00:57.598Z,35.01
2022-08-02T10:03:35.346Z,35.19
2022-08-02T10:06:05.497Z,35.74
2022-08-02T10:08:35.442Z,35.97
2022-08-02T10:11:06.777Z,36.14
2022-08-02T10:13:35.686Z,36.27
2022-08-02T10:16:04.324Z,36.39
2022-08-02T10:18:41.308Z,36.77
2022-08-02T10:21:14.436Z,36.59
2022-08-02T10:23:43.995Z,36.78
2022-08-02T10:26:18.924Z,36.74
2022-08-02T10:28:50.010Z,36.57
2022-08-02T10:31:21.033Z,36.09
2022-08-02T10:33:53.050Z,35.91
2022-08-02T10:36:23.866Z,36.17
2022-08-02T10:38:52.354Z,36.60
2022-08-02T10:41:39.870Z,36.86
2022-08-02T10:44:08.650Z,37.11
2022-08-02T10:46:53.986Z,37.17
2022-08-02T10:49:39.259Z,37.01
2022-08-02T10:52:09.892Z,37.18
2022-08-02T10:54:43.015Z,37.07
2022-08-02T10:57:17.013Z,37.17
2022-08-02T10:59:48.900Z,37.28
2022-08-02T11:02:33.785Z,36.99
2022-08-02T11:05:03.476Z,36.66
2022-08-02T11:07:33.307Z,36.65
2022-08-02T11:10:21.221Z,36.90
2022-08-02T11:13:00.807Z,36.71
2022-08-02T11:15:30.558Z,36.34
2022-08-02T11:18:01.366Z,35.65
2022-08-02T11:20:29.437Z,34.95
2022-08-02T11:23:17.505Z,34.71
2022-08-02T11:26:03.905Z,34.76
2022-08-02T11:28:35.330Z,34.93
2022-08-02T11:31:03.465Z,35.07
2022-08-02T11:33:32.961Z,35.49
2022-08-02T11:36:02.336Z,35.74
2022-08-02T11:38:31.329Z,35.45
2022-08-02T11:41:00.251Z,34.97
2022-08-02T11:43:34.596Z,34.45
2022-08-02T11:46:12.171Z,34.06
2022-08-02T11:48:41.515Z,33.69
2022-08-02T11:51:16.659Z,33.26
2022-08-02T11:53:46.337Z,33.17
2022-08-02T11:56:17.959Z,33.09
2022-08-02T11:59:02.400Z,33.19
2022-08-02T12:01:31.025Z,33.37
2022-08-02T12:04:02.227Z,33.56
2022-08-02T12:06:31.041Z,33.71
2022-08-02T12:09:19.202Z,33.85
2022-08-02T12:11:53.518Z,33.96
2022-08-02T12:14:22.489Z,34.05
2022-08-02T12:17:10.396Z,33.94
2022-08-02T12:19:40.568Z,33.84
2022-08-02T12:22:08.501Z,33.85
2022-08-02T12:24:37.088Z,34.08
2022-08-02T12:27:05.477Z,34.37
2022-08-02T12:29:58.511Z,34.26
2022-08-02T12:32:24.974Z,34.08
2022-08-02T12:35:07.395Z,33.97
2022-08-02T12:37:36.233Z,33.82
2022-08-02T12:40:20.879Z,33.67
2022-08-02T12:43:01.295Z,33.78
2022-08-02T12:45:38.402Z,33.91
2022-08-02T12:48:09.756Z,34.04
2022-08-02T12:50:38.668Z,34.21
2022-08-02T12:53:12.536Z,34.24
2022-08-02T12:56:00.062Z,34.01
2022-08-02T12:58:31.993Z,33.92
2022-08-02T13:01:02.845Z,33.83
2022-08-02T13:04:10.851Z,33.70
2022-08-02T13:09:12.837Z,33.58
2022-08-02T13:11:42.891Z,33.58
2022-08-02T13:14:13.268Z,33.67
2022-08-02T13:16:42.367Z,33.74
2022-08-02T13:19:12.071Z,33.62
2022-08-02T13:22:02.008Z,33.49
2022-08-02T13:24:37.920Z,33.44
2022-08-02T13:27:08.993Z,33.50
2022-08-02T13:29:38.316Z,33.51
2022-08-02T13:32:06.521Z,33.44
2022-08-02T13:34:36.177Z,33.57
2022-08-02T13:37:04.446Z,33.65
2022-08-02T13:39:32.550Z,33.57
2022-08-02T13:42:00.800Z,33.30
2022-08-02T13:44:29.100Z,33.08
2022-08-02T13:46:57.659Z,32.89
2022-08-02T13:49:51.307Z,32.61
2022-08-02T13:52:14.440Z,32.47
2022-08-02T13:54:42.956Z,32.37
2022-08-02T13:57:11.593Z,32.16
2022-08-02T13:59:58.005Z,32.11
2022-08-02T14:02:32.152Z,32.01
2022-08-02T14:05:00.307Z,31.77
2022-08-02T14:07:28.415Z,31.54
2022-08-02T14:09:57.548Z,31.36
2022-08-02T14:12:25.573Z,31.27
2022-08-02T14:14:57.075Z,31.20
2022-08-02T14:17:25.208Z,31.07
2022-08-02T14:19:54.805Z,30.97
2022-08-02T14:22:23.166Z,30.84
2022-08-02T14:24:55.488Z,30.70
2022-08-02T14:27:24.319Z,30.50
2022-08-02T14:29:52.761Z,30.30
2022-08-02T14:32:30.058Z,30.24
2022-08-02T14:35:00.947Z,30.18
2022-08-02T14:37:29.275Z,30.12
2022-08-02T14:40:00.017Z,30.13
2022-08-02T14:42:30.095Z,30.26
2022-08-02T14:44:59.435Z,30.34
2022-08-02T14:47:27.906Z,30.36
2022-08-02T14:49:56.102Z,30.32
2022-08-02T14:52:24.206Z,30.37
2022-08-02T14:54:52.231Z,30.45
2022-08-02T14:57:20.100Z,30.51
2022-08-02T14:59:49.232Z,30.52
2022-08-02T15:02:17.694Z,30.50
2022-08-02T15:04:45.942Z,30.48
2022-08-02T15:07:15.102Z,30.43
2022-08-02T15:09:43.197Z,30.33
2022-08-02T15:12:12.356Z,30.27
2022-08-02T15:14:40.936Z,30.24
2022-08-02T15:17:09.081Z,30.20
2022-08-02T15:19:57.889Z,30.15
2022-08-02T15:22:25.882Z,30.07
2022-08-02T15:24:54.654Z,29.99
2022-08-02T15:27:22.875Z,29.89
2022-08-02T15:29:52.462Z,29.82
2022-08-02T15:32:20.340Z,29.76
2022-08-02T15:34:48.945Z,29.71
2022-08-02T15:37:16.973Z,29.56
2022-08-02T15:39:45.244Z,29.47
2022-08-02T15:42:13.699Z,29.43
2022-08-02T15:44:42.147Z,29.36
2022-08-02T15:47:11.320Z,29.30
2022-08-02T15:49:41.787Z,29.24
2022-08-02T15:52:10.630Z,29.18
2022-08-02T15:54:40.681Z,29.11
2022-08-02T15:57:08.806Z,29.06
2022-08-02T15:59:36.941Z,28.95
2022-08-02T16:02:06.864Z,28.90
2022-08-02T16:04:34.902Z,28.86
2022-08-02T16:07:02.905Z,28.80
2022-08-02T16:09:31.169Z,28.72
2022-08-02T16:11:59.168Z,28.69
2022-08-02T16:14:29.519Z,28.68
2022-08-02T16:16:57.588Z,28.73
2022-08-02T16:19:47.653Z,28.76
2022-08-02T16:22:14.792Z,28.82
2022-08-02T16:24:44.299Z,28.88
2022-08-02T16:27:12.959Z,28.89
2022-08-02T16:29:41.022Z,28.90
2022-08-02T16:32:09.261Z,28.92
2022-08-02T16:35:04.044Z,28.90
2022-08-02T16:37:25.469Z,28.76
2022-08-02T16:39:53.596Z,28.60
2022-08-02T16:42:25.279Z,28.41
2022-08-02T16:44:55.356Z,28.29
2022-08-02T16:47:43.435Z,28.20
2022-08-02T16:50:11.797Z,28.09
2022-08-02T16:52:39.978Z,28.01
2022-08-02T16:55:11.148Z,27.89
2022-08-02T16:57:43.175Z,27.78
2022-08-02T17:00:15.378Z,27.69
2022-08-02T17:02:43.963Z,27.58
2022-08-02T17:05:14.521Z,27.44
2022-08-02T17:08:08.500Z,27.34
2022-08-02T17:10:33.745Z,27.22
2022-08-02T17:13:11.506Z,27.16
2022-08-02T17:18:29.605Z,26.91
2022-08-02T17:20:58.219Z,26.85
2022-08-02T17:23:47.045Z,26.79
2022-08-02T17:26:14.493Z,26.72
2022-08-02T17:29:03.778Z,26.63
2022-08-02T17:31:42.494Z,26.50
2022-08-02T17:34:12.793Z,26.37
2022-08-02T17:36:42.463Z,26.25
2022-08-02T17:39:12.520Z,26.16
2022-08-02T17:41:49.212Z,26.08
2022-08-02T17:44:37.681Z,25.99
2022-08-02T17:47:08.670Z,25.89
2022-08-02T17:49:47.756Z,25.81
2022-08-02T17:52:50.880Z,25.71
2022-08-02T17:55:07.281Z,25.61
2022-08-02T17:57:56.116Z,25.52
2022-08-02T18:00:24.778Z,25.43
2022-08-02T18:02:55.475Z,25.35
2022-08-02T18:05:41.577Z,25.27
2022-08-02T18:08:17.295Z,25.19
2022-08-02T18:10:49.633Z,25.11
2022-08-02T18:13:17.639Z,25.03
2022-08-02T18:15:46.083Z,24.94
2022-08-02T18:18:14.783Z,24.85
2022-08-02T18:20:43.081Z,24.77
2022-08-02T18:23:13.811Z,24.69
2022-08-02T18:25:45.931Z,24.62
2022-08-02T18:28:16.964Z,24.55
2022-08-02T18:30:45.320Z,24.47
2022-08-02T18:33:57.556Z,24.39
2022-08-02T18:36:01.701Z,24.31
2022-08-02T18:38:31.581Z,24.24
2022-08-02T18:41:02.943Z,24.16
2022-08-02T18:43:36.381Z,24.08
2022-08-02T18:46:15.913Z,24.02
2022-08-02T18:48:46.214Z,23.97
2022-08-02T18:51:16.414Z,23.89
2022-08-02T18:53:51.432Z,23.82
2022-08-02T18:56:24.726Z,23.75
2022-08-02T18:58:55.086Z,23.68
2022-08-02T19:01:32.117Z,23.61
2022-08-02T19:04:04.373Z,23.53
2022-08-02T19:06:33.839Z,23.47
2022-08-02T19:09:12.672Z,23.41
2022-08-02T19:11:47.321Z,23.34
2022-08-02T19:17:54.507Z,23.20
2022-08-02T19:19:56.192Z,23.12
2022-08-02T19:22:24.674Z,23.05
2022-08-02T19:25:01.206Z,22.99
2022-08-02T19:27:32.592Z,22.93
2022-08-02T19:30:03.285Z,22.87
2022-08-02T19:32:42.261Z,22.79
2022-08-02T19:35:29.366Z,22.72
2022-08-02T19:38:12.068Z,22.65
2022-08-02T19:40:43.908Z,22.59
2022-08-02T19:46:15.909Z,22.47
2022-08-02T19:48:47.364Z,22.41
2022-08-02T19:51:49.693Z,22.37
2022-08-02T19:54:06.134Z,22.30
2022-08-02T19:56:40.579Z,22.24
2022-08-02T19:59:13.883Z,22.19
2022-08-02T20:01:48.603Z,22.12
2022-08-02T20:04:22.999Z,22.04
2022-08-02T20:06:53.130Z,21.98
2022-08-02T20:09:23.489Z,21.92
2022-08-02T20:12:02.830Z,21.87
2022-08-02T20:14:30.934Z,21.80
2022-08-02T20:17:00.127Z,21.75
2022-08-02T20:19:28.972Z,21.70
2022-08-02T20:22:00.002Z,21.65
2022-08-02T20:24:29.664Z,21.62
2022-08-02T20:26:59.356Z,21.61
2022-08-02T20:29:43.457Z,21.58
2022-08-02T20:32:15.020Z,21.51
2022-08-02T20:34:48.643Z,21.44
2022-08-02T20:37:59.088Z,21.38
2022-08-02T20:40:05.998Z,21.30
2022-08-02T20:42:36.953Z,21.24
2022-08-02T20:45:07.629Z,21.19
2022-08-02T20:47:39.799Z,21.14
2022-08-02T20:50:30.360Z,21.11
2022-08-02T20:53:00.455Z,21.06
2022-08-02T20:55:30.964Z,21.02
2022-08-02T20:58:02.025Z,21.00
2022-08-02T21:00:32.456Z,20.95
2022-08-02T21:03:02.601Z,20.91
2022-08-02T21:05:54.049Z,20.88
2022-08-02T21:08:21.625Z,20.84
2022-08-02T21:10:52.490Z,20.81
2022-08-02T21:13:24.087Z,20.76
2022-08-02T21:15:54.867Z,20.71
2022-08-02T21:18:39.715Z,20.67
2022-08-02T21:21:10.581Z,20.62
2022-08-02T21:23:48.578Z,20.60
2022-08-02T21:26:31.034Z,20.55
2022-08-02T21:29:03.176Z,20.52
2022-08-02T21:31:36.514Z,20.50
2022-08-02T21:34:21.676Z,20.47
2022-08-02T21:36:51.818Z,20.44
2022-08-02T21:39:20.668Z,20.41
2022-08-02T21:41:49.274Z,20.41
2022-08-02T21:44:18.387Z,20.40
2022-08-02T21:46:50.601Z,20.38
2022-08-02T21:49:20.407Z,20.36
2022-08-02T21:51:50.167Z,20.33
2022-08-02T21:54:21.337Z,20.31
2022-08-02T21:56:52.106Z,20.28
2022-08-02T21:59:25.799Z,20.25
2022-08-02T22:01:56.976Z,20.24
2022-08-02T22:04:26.333Z,20.22
2022-08-02T22:06:56.833Z,20.19
2022-08-02T22:09:44.485Z,20.17
2022-08-02T22:12:17.625Z,20.12
2022-08-02T22:14:54.277Z,20.10
2022-08-02T22:17:53.520Z,20.08
2022-08-02T22:20:22.142Z,20.04
2022-08-02T22:22:52.079Z,20.02
2022-08-02T22:25:26.748Z,19.99
2022-08-02T22:28:39.025Z,19.97
2022-08-02T22:31:04.631Z,19.91
2022-08-02T22:34:00.782Z,19.87
2022-08-02T22:36:31.597Z,19.81
2022-08-02T22:39:02.217Z,19.75
2022-08-02T22:42:06.535Z,19.70
2022-08-02T22:44:20.969Z,19.59
2022-08-02T22:46:49.937Z,19.51
2022-08-02T22:49:51.662Z,19.44
2022-08-02T22:52:24.183Z,19.35
2022-08-02T22:54:52.227Z,19.28
2022-08-02T22:57:29.950Z,19.22
2022-08-02T22:58:47.333Z,23.27
2022-08-02T22:58:48.780Z,27.02
2022-08-02T22:59:05.991Z,22.53
2022-08-02T23:00:00.588Z,19.17
2022-08-02T23:02:30.177Z,19.15
2022-08-02T23:04:58.469Z,19.15
2022-08-02T23:07:26.723Z,19.16
2022-08-02T23:09:54.740Z,19.16
2022-08-02T23:12:23.485Z,19.16
2022-08-02T23:14:51.948Z,19.15
2022-08-02T23:17:38.890Z,19.14
2022-08-02T23:20:07.814Z,19.12
2022-08-02T23:22:36.628Z,19.11
2022-08-02T23:25:08.549Z,19.12
2022-08-02T23:27:36.646Z,19.12
2022-08-02T23:30:05.716Z,19.11
2022-08-02T23:32:33.811Z,19.09
2022-08-02T23:35:02.728Z,19.06
2022-08-02T23:37:57.842Z,19.03
2022-08-02T23:40:39.234Z,18.99
2022-08-02T23:43:14.658Z,18.96
2022-08-02T23:45:45.510Z,18.95
2022-08-02T23:48:13.870Z,18.93
2022-08-02T23:50:43.318Z,18.91
2022-08-02T23:53:11.455Z,18.89
2022-08-02T23:55:39.748Z,18.87
2022-08-02T23:58:07.733Z,18.86
